createdAt,value
2019-04-11T00:00:06.879Z,0.00
2019-04-11T00:01:05.979Z,0.00
2019-04-11T00:02:06.638Z,0.00
2019-04-11T00:03:05.601Z,0.00
2019-04-11T00:04:06.085Z,0.00
2019-04-11T00:05:06.421Z,0.00
2019-04-11T00:06:05.597Z,0.00
2019-04-11T00:07:05.887Z,0.00
2019-04-11T00:08:05.970Z,0.00
2019-04-11T00:09:06.085Z,0.00
2019-04-11T00:10:06.250Z,0.00
2019-04-11T00:11:05.934Z,0.00
2019-04-11T00:12:06.335Z,0.00
2019-04-11T00:13:17.277Z,0.00
2019-04-11T00:14:07.428Z,0.00
2019-04-11T00:15:06.391Z,0.00
2019-04-11T00:16:06.778Z,0.00
2019-04-11T00:17:05.802Z,0.00
2019-04-11T00:18:06.138Z,0.00
2019-04-11T00:19:05.458Z,0.00
2019-04-11T00:20:05.417Z,0.00
2019-04-11T00:21:06.651Z,0.00
2019-04-11T00:22:05.663Z,0.00
2019-04-11T00:23:06.091Z,0.00
2019-04-11T00:24:05.404Z,0.00
2019-04-11T00:25:05.388Z,0.00
2019-04-11T00:26:06.489Z,0.00
2019-04-11T00:27:05.634Z,0.00
2019-04-11T00:28:05.724Z,0.00
2019-04-11T00:29:05.947Z,0.00
2019-04-11T00:30:05.966Z,0.00
2019-04-11T00:31:06.352Z,0.00
2019-04-11T00:32:08.778Z,0.00
2019-04-11T00:33:05.713Z,0.00
2019-04-11T00:34:05.276Z,0.00
2019-04-11T00:35:05.256Z,0.00
2019-04-11T00:36:06.286Z,0.00
2019-04-11T00:37:05.263Z,0.00
2019-04-11T00:38:05.542Z,0.00
2019-04-11T00:39:05.578Z,0.00
2019-04-11T00:40:05.205Z,0.00
2019-04-11T00:41:05.835Z,0.00
2019-04-11T00:42:06.173Z,0.00
2019-04-11T00:43:05.278Z,0.00
2019-04-11T00:44:06.267Z,0.00
2019-04-11T00:45:05.441Z,0.00
2019-04-11T00:46:05.138Z,0.00
2019-04-11T00:47:05.131Z,0.00
2019-04-11T00:48:05.822Z,0.00
2019-04-11T00:49:06.210Z,0.00
2019-04-11T00:50:05.644Z,0.00
2019-04-11T00:51:05.086Z,0.00
2019-04-11T00:52:05.081Z,0.00
2019-04-11T00:53:05.590Z,0.00
2019-04-11T00:54:05.086Z,0.00
2019-04-11T00:55:05.114Z,0.00
2019-04-11T00:56:06.130Z,0.00
2019-04-11T00:57:05.024Z,0.00
2019-04-11T00:58:05.556Z,0.00
2019-04-11T00:59:05.860Z,0.00
2019-04-11T01:00:05.048Z,0.00
2019-04-11T01:01:04.989Z,0.00
2019-04-11T01:02:05.172Z,0.00
2019-04-11T01:03:06.200Z,0.00
2019-04-11T01:04:04.960Z,0.00
2019-04-11T01:05:05.470Z,0.00
2019-04-11T01:06:05.785Z,0.00
2019-04-11T01:07:04.924Z,0.00
2019-04-11T01:08:05.233Z,0.00
2019-04-11T01:09:04.906Z,0.00
2019-04-11T01:10:04.882Z,0.00
2019-04-11T01:11:05.786Z,0.00
2019-04-11T01:12:04.915Z,0.00
2019-04-11T01:13:05.106Z,0.00
2019-04-11T01:14:05.681Z,0.00
2019-04-11T01:15:05.001Z,0.00
2019-04-11T01:16:05.077Z,0.00
2019-04-11T01:17:06.140Z,0.00
2019-04-11T01:18:05.590Z,0.00
2019-04-11T01:19:04.786Z,0.00
2019-04-11T01:20:04.953Z,0.00
2019-04-11T01:21:04.771Z,0.00
2019-04-11T01:22:05.749Z,0.00
2019-04-11T01:23:04.856Z,0.00
2019-04-11T01:24:04.773Z,0.00
2019-04-11T01:25:04.726Z,0.00
2019-04-11T01:26:05.308Z,0.00
2019-04-11T01:27:05.601Z,0.00
2019-04-11T01:28:04.719Z,0.00
2019-04-11T01:29:04.682Z,0.00
2019-04-11T01:30:04.730Z,0.00
2019-04-11T01:31:05.239Z,0.00
2019-04-11T01:32:04.647Z,0.00
2019-04-11T01:33:04.654Z,0.00
2019-04-11T01:34:04.626Z,0.00
2019-04-11T01:35:04.821Z,0.00
2019-04-11T01:36:04.883Z,0.00
2019-04-11T01:37:04.597Z,0.00
2019-04-11T01:38:04.595Z,0.00
2019-04-11T01:39:05.183Z,0.00
2019-04-11T01:40:05.525Z,0.00
2019-04-11T01:41:04.582Z,0.00
2019-04-11T01:42:04.868Z,0.00
2019-04-11T01:43:04.540Z,0.00
2019-04-11T01:44:07.120Z,0.00
2019-04-11T01:45:05.375Z,0.00
2019-04-11T01:46:05.592Z,0.00
2019-04-11T01:47:04.658Z,0.00
2019-04-11T01:48:04.530Z,0.00
2019-04-11T01:49:04.467Z,0.00
2019-04-11T01:50:04.961Z,0.00
2019-04-11T01:51:05.356Z,0.00
2019-04-11T01:52:05.019Z,0.00
2019-04-11T01:53:04.641Z,0.00
2019-04-11T01:54:05.637Z,0.00
2019-04-11T01:55:04.404Z,0.00
2019-04-11T01:56:05.100Z,0.00
2019-04-11T01:57:05.428Z,0.00
2019-04-11T01:58:04.661Z,0.00
2019-04-11T01:59:04.908Z,0.00
2019-04-11T02:00:04.407Z,0.00
2019-04-11T02:01:04.340Z,0.00
2019-04-11T02:02:05.389Z,0.00
2019-04-11T02:03:04.319Z,0.00
2019-04-11T02:04:04.306Z,0.00
2019-04-11T02:05:04.883Z,0.00
2019-04-11T02:06:05.412Z,0.00
2019-04-11T02:07:04.606Z,0.00
2019-04-11T02:08:04.266Z,0.00
2019-04-11T02:09:04.256Z,0.00
2019-04-11T02:10:04.361Z,0.00
2019-04-11T02:11:05.381Z,0.00
2019-04-11T02:12:04.276Z,0.00
2019-04-11T02:13:04.220Z,0.00
2019-04-11T02:14:10.941Z,0.00
2019-04-11T02:15:06.115Z,0.00
2019-04-11T02:16:05.016Z,0.00
2019-04-11T02:17:04.331Z,0.00
2019-04-11T02:18:05.364Z,0.00
2019-04-11T02:19:04.146Z,0.00
2019-04-11T02:20:04.852Z,0.00
2019-04-11T02:21:05.192Z,0.00
2019-04-11T02:22:04.219Z,0.00
2019-04-11T02:23:04.642Z,0.00
2019-04-11T02:24:04.157Z,0.00
2019-04-11T02:25:04.089Z,0.00
2019-04-11T02:26:05.017Z,0.00
2019-04-11T02:27:04.065Z,0.00
2019-04-11T02:28:04.429Z,0.00
2019-04-11T02:29:04.055Z,0.00
2019-04-11T02:30:04.646Z,0.00
2019-04-11T02:31:05.410Z,0.00
2019-04-11T02:32:05.442Z,0.00
2019-04-11T02:33:04.700Z,0.00
2019-04-11T02:34:05.876Z,0.00
2019-04-11T02:35:05.142Z,0.00
2019-04-11T02:36:05.264Z,0.00
2019-04-11T02:37:05.037Z,0.00
2019-04-11T02:38:04.953Z,0.00
2019-04-11T02:39:09.809Z,0.00
2019-04-11T02:40:07.136Z,0.00
2019-04-11T02:41:05.956Z,0.00
2019-04-11T02:42:04.158Z,0.00
2019-04-11T02:43:04.921Z,0.00
2019-04-11T02:44:05.746Z,0.00
2019-04-11T02:45:22.680Z,0.00
2019-04-11T02:46:14.304Z,0.00
2019-04-11T02:47:09.438Z,0.00
2019-04-11T02:48:05.865Z,0.00
2019-04-11T02:49:03.826Z,0.00
2019-04-11T02:50:05.637Z,0.00
2019-04-11T02:51:06.910Z,0.00
2019-04-11T02:52:03.794Z,0.00
2019-04-11T02:53:05.062Z,0.00
2019-04-11T02:54:04.727Z,0.00
2019-04-11T02:55:05.633Z,0.00
2019-04-11T02:56:03.754Z,0.00
2019-04-11T02:57:03.755Z,0.00
2019-04-11T02:58:05.614Z,0.00
2019-04-11T02:59:05.200Z,0.00
2019-04-11T03:00:04.451Z,0.00
2019-04-11T03:01:06.978Z,0.00
2019-04-11T03:02:04.661Z,0.00
2019-04-11T03:03:05.710Z,0.00
2019-04-11T03:04:04.931Z,0.00
2019-04-11T03:05:05.523Z,0.00
2019-04-11T03:06:04.443Z,0.00
2019-04-11T03:07:03.979Z,0.00
2019-04-11T03:08:07.990Z,0.00
2019-04-11T03:09:04.682Z,0.00
2019-04-11T03:10:04.931Z,0.00
2019-04-11T03:11:05.327Z,0.00
2019-04-11T03:12:05.182Z,0.00
2019-04-11T03:13:04.848Z,0.00
2019-04-11T03:14:04.128Z,0.00
2019-04-11T03:15:21.129Z,0.00
2019-04-11T03:16:19.251Z,0.00
2019-04-11T03:17:14.098Z,0.00
2019-04-11T03:18:08.658Z,0.00
2019-04-11T03:19:18.351Z,0.00
2019-04-11T03:20:18.784Z,0.00
2019-04-11T03:21:09.043Z,0.00
2019-04-11T03:22:05.567Z,0.00
2019-04-11T03:23:07.488Z,0.00
2019-04-11T03:24:06.348Z,0.00
2019-04-11T03:25:05.370Z,0.00
2019-04-11T03:26:05.177Z,0.00
2019-04-11T03:27:04.934Z,0.00
2019-04-11T03:28:04.957Z,0.00
2019-04-11T03:29:04.165Z,0.00
2019-04-11T03:30:06.748Z,0.00
2019-04-11T03:31:33.067Z,0.00
2019-04-11T03:32:49.343Z,0.00
2019-04-11T03:37:00.085Z,0.00
2019-04-11T03:37:30.248Z,0.00
2019-04-11T03:38:33.187Z,0.00
2019-04-11T03:39:21.744Z,0.00
2019-04-11T03:40:22.608Z,0.00
2019-04-11T03:41:22.012Z,0.00
2019-04-11T03:42:21.941Z,0.00
2019-04-11T03:43:20.139Z,0.00
2019-04-11T03:44:14.390Z,0.00
2019-04-11T03:45:31.100Z,0.00
2019-04-11T03:46:25.044Z,0.00
2019-04-11T03:47:16.664Z,0.00
2019-04-11T03:48:18.145Z,0.00
2019-04-11T03:49:19.544Z,0.00
2019-04-11T03:50:10.732Z,0.00
2019-04-11T03:51:04.803Z,0.00
2019-04-11T03:52:03.686Z,0.00
2019-04-11T03:53:04.769Z,0.00
2019-04-11T03:54:03.165Z,0.00
2019-04-11T03:55:05.923Z,0.00
2019-04-11T03:56:03.863Z,0.00
2019-04-11T03:57:03.626Z,0.00
2019-04-11T03:58:03.781Z,0.00
2019-04-11T03:59:04.089Z,0.00
2019-04-11T04:00:04.246Z,0.00
2019-04-11T04:01:05.864Z,0.00
2019-04-11T04:02:05.801Z,0.00
2019-04-11T04:03:04.571Z,0.00
2019-04-11T04:04:03.444Z,0.00
2019-04-11T04:05:03.929Z,0.00
2019-04-11T04:06:04.447Z,0.00
2019-04-11T04:07:04.769Z,0.00
2019-04-11T04:08:04.550Z,0.00
2019-04-11T04:09:03.210Z,0.00
2019-04-11T04:10:05.025Z,0.00
2019-04-11T04:11:04.022Z,0.00
2019-04-11T04:12:02.969Z,0.00
2019-04-11T04:13:04.836Z,0.00
2019-04-11T04:14:04.219Z,0.00
2019-04-11T04:15:05.931Z,0.00
2019-04-11T04:16:12.140Z,0.00
2019-04-11T04:17:06.245Z,0.00
2019-04-11T04:18:03.558Z,0.00
2019-04-11T04:19:04.763Z,0.00
2019-04-11T04:20:04.862Z,0.00
2019-04-11T04:21:04.245Z,0.00
2019-04-11T04:22:03.157Z,0.00
2019-04-11T04:23:03.305Z,0.00
2019-04-11T04:24:04.047Z,0.00
2019-04-11T04:25:04.279Z,0.00
2019-04-11T04:26:03.145Z,0.00
2019-04-11T04:27:04.625Z,0.00
2019-04-11T04:28:03.157Z,0.00
2019-04-11T04:29:04.477Z,0.00
2019-04-11T04:30:05.327Z,0.00
2019-04-11T04:31:04.443Z,0.00
2019-04-11T04:32:03.091Z,0.00
2019-04-11T04:33:02.933Z,0.00
2019-04-11T04:34:03.859Z,0.00
2019-04-11T04:35:06.356Z,0.00
2019-04-11T04:36:04.867Z,0.00
2019-04-11T04:37:05.623Z,0.00
2019-04-11T04:38:03.052Z,0.00
2019-04-11T04:39:04.204Z,0.00
2019-04-11T04:40:20.331Z,5.62
2019-04-11T04:41:16.307Z,5.62
2019-04-11T04:42:08.153Z,5.62
2019-04-11T04:43:07.103Z,5.62
2019-04-11T04:44:04.307Z,5.62
2019-04-11T04:45:03.280Z,5.62
2019-04-11T04:46:17.071Z,11.25
2019-04-11T04:47:13.631Z,11.25
2019-04-11T04:48:08.471Z,11.25
2019-04-11T04:49:04.766Z,11.25
2019-04-11T04:50:04.562Z,11.25
2019-04-11T04:51:07.464Z,16.88
2019-04-11T04:52:04.129Z,16.88
2019-04-11T04:53:02.783Z,16.88
2019-04-11T04:54:03.957Z,22.50
2019-04-11T04:55:04.501Z,22.50
2019-04-11T04:56:02.743Z,22.50
2019-04-11T04:57:02.995Z,22.50
2019-04-11T04:58:02.467Z,28.12
2019-04-11T04:59:02.845Z,28.12
2019-04-11T05:00:04.838Z,28.12
2019-04-11T05:01:04.207Z,33.75
2019-04-11T05:02:04.041Z,33.75
2019-04-11T05:03:02.647Z,39.38
2019-04-11T05:04:02.405Z,39.38
2019-04-11T05:05:04.285Z,39.38
2019-04-11T05:06:03.956Z,45.00
2019-04-11T05:07:03.262Z,45.00
2019-04-11T05:08:02.892Z,50.62
2019-04-11T05:09:02.351Z,50.62
2019-04-11T05:10:03.226Z,50.62
2019-04-11T05:11:02.835Z,56.25
2019-04-11T05:12:03.445Z,56.25
2019-04-11T05:13:03.579Z,61.88
2019-04-11T05:14:03.009Z,61.88
2019-04-11T05:15:03.670Z,61.88
2019-04-11T05:16:09.574Z,67.50
2019-04-11T05:17:03.261Z,67.50
2019-04-11T05:18:02.250Z,73.12
2019-04-11T05:19:02.312Z,73.12
2019-04-11T05:20:03.007Z,78.75
2019-04-11T05:21:03.249Z,78.75
2019-04-11T05:22:02.214Z,78.75
2019-04-11T05:23:02.193Z,84.38
2019-04-11T05:24:02.202Z,84.38
2019-04-11T05:25:03.504Z,90.00
2019-04-11T05:26:03.400Z,90.00
2019-04-11T05:27:02.153Z,95.62
2019-04-11T05:28:02.276Z,95.62
2019-04-11T05:29:02.718Z,101.25
2019-04-11T05:30:02.947Z,101.25
2019-04-11T05:31:02.569Z,101.25
2019-04-11T05:32:03.090Z,106.88
2019-04-11T05:33:02.089Z,106.88
2019-04-11T05:34:02.082Z,112.50
2019-04-11T05:35:02.913Z,112.50
2019-04-11T05:36:02.064Z,118.12
2019-04-11T05:37:02.341Z,118.12
2019-04-11T05:38:02.045Z,118.12
2019-04-11T05:39:02.363Z,123.75
2019-04-11T05:40:03.096Z,123.75
2019-04-11T05:41:02.211Z,129.38
2019-04-11T05:42:03.055Z,129.38
2019-04-11T05:43:02.037Z,135.00
2019-04-11T05:44:04.291Z,135.00
2019-04-11T05:45:03.169Z,135.00
2019-04-11T05:46:03.637Z,140.62
2019-04-11T05:47:05.607Z,140.62
2019-04-11T05:48:03.098Z,140.62
2019-04-11T05:49:02.630Z,140.62
2019-04-11T05:50:07.579Z,140.62
2019-04-11T05:51:02.899Z,146.25
2019-04-11T05:52:02.125Z,146.25
2019-04-11T05:53:03.666Z,146.25
2019-04-11T05:54:06.138Z,151.88
2019-04-11T05:55:03.071Z,151.88
2019-04-11T05:56:01.844Z,151.88
2019-04-11T05:57:03.083Z,157.50
2019-04-11T05:58:05.906Z,157.50
2019-04-11T05:59:02.807Z,157.50
2019-04-11T06:00:01.794Z,163.12
2019-04-11T06:01:01.867Z,163.12
2019-04-11T06:02:06.470Z,163.12
2019-04-11T06:03:03.794Z,168.75
2019-04-11T06:04:02.056Z,168.75
2019-04-11T06:05:02.867Z,168.75
2019-04-11T06:06:02.959Z,168.75
2019-04-11T06:07:01.807Z,174.38
2019-04-11T06:08:02.515Z,174.38
2019-04-11T06:09:02.231Z,174.38
2019-04-11T06:10:06.019Z,180.00
2019-04-11T06:11:04.319Z,180.00
2019-04-11T06:12:01.673Z,180.00
2019-04-11T06:13:02.523Z,185.62
2019-04-11T06:14:03.887Z,185.62
2019-04-11T06:15:02.086Z,185.62
2019-04-11T06:16:02.952Z,185.62
2019-04-11T06:17:01.850Z,191.25
2019-04-11T06:18:02.687Z,191.25
2019-04-11T06:19:01.626Z,191.25
2019-04-11T06:20:02.117Z,196.88
2019-04-11T06:21:01.942Z,196.88
2019-04-11T06:22:01.564Z,196.88
2019-04-11T06:23:03.310Z,202.50
2019-04-11T06:24:01.538Z,202.50
2019-04-11T06:25:03.249Z,202.50
2019-04-11T06:26:02.268Z,208.12
2019-04-11T06:27:01.507Z,208.12
2019-04-11T06:28:02.090Z,208.12
2019-04-11T06:29:04.888Z,213.75
2019-04-11T06:30:03.392Z,213.75
2019-04-11T06:31:01.474Z,213.75
2019-04-11T06:32:01.471Z,213.75
2019-04-11T06:33:02.540Z,219.38
2019-04-11T06:34:01.435Z,219.38
2019-04-11T06:35:01.896Z,219.38
2019-04-11T06:36:02.149Z,219.38
2019-04-11T06:37:01.444Z,225.00
2019-04-11T06:38:02.534Z,225.00
2019-04-11T06:39:01.381Z,225.00
2019-04-11T06:40:02.512Z,225.00
2019-04-11T06:41:01.983Z,230.62
2019-04-11T06:42:01.405Z,230.62
2019-04-11T06:43:01.481Z,236.25
2019-04-11T06:44:02.579Z,236.25
2019-04-11T06:45:02.141Z,236.25
2019-04-11T06:46:01.305Z,236.25
2019-04-11T06:47:02.637Z,241.88
2019-04-11T06:48:01.335Z,241.88
2019-04-11T06:49:02.419Z,241.88
2019-04-11T06:50:01.270Z,241.88
2019-04-11T06:51:01.833Z,247.50
2019-04-11T06:52:02.202Z,247.50
2019-04-11T06:53:02.310Z,253.12
2019-04-11T06:54:01.261Z,253.12
2019-04-11T06:55:02.461Z,253.12
2019-04-11T06:56:01.752Z,253.12
2019-04-11T06:57:01.268Z,258.75
2019-04-11T06:58:01.174Z,258.75
2019-04-11T06:59:01.712Z,258.75
2019-04-11T07:00:01.186Z,264.38
2019-04-11T07:01:01.351Z,264.38
2019-04-11T07:02:09.742Z,264.38
2019-04-11T07:03:03.402Z,270.00
2019-04-11T07:04:01.111Z,270.00
2019-04-11T07:05:02.402Z,275.62
2019-04-11T07:06:01.133Z,275.62
2019-04-11T07:07:02.030Z,275.62
2019-04-11T07:08:02.106Z,275.62
2019-04-11T07:09:01.087Z,281.25
2019-04-11T07:10:02.073Z,281.25
2019-04-11T07:11:01.049Z,281.25
2019-04-11T07:12:01.365Z,281.25
2019-04-11T07:13:01.012Z,286.88
2019-04-11T07:14:01.893Z,286.88
2019-04-11T07:15:02.450Z,286.88
2019-04-11T07:16:00.985Z,286.88
2019-04-11T07:17:05.692Z,286.88
2019-04-11T07:18:04.700Z,292.50
2019-04-11T07:19:02.866Z,292.50
2019-04-11T07:20:00.939Z,292.50
2019-04-11T07:21:00.929Z,292.50
2019-04-11T07:22:00.920Z,292.50
2019-04-11T07:23:01.583Z,286.88
2019-04-11T07:24:00.957Z,286.88
2019-04-11T07:25:01.948Z,286.88
2019-04-11T07:26:00.871Z,292.50
2019-04-11T07:27:00.981Z,292.50
2019-04-11T07:28:01.499Z,292.50
2019-04-11T07:29:00.841Z,292.50
2019-04-11T07:30:00.889Z,292.50
2019-04-11T07:31:00.820Z,298.12
2019-04-11T07:32:00.972Z,298.12
2019-04-11T07:33:02.153Z,298.12
2019-04-11T07:34:00.880Z,298.12
2019-04-11T07:35:02.172Z,298.12
2019-04-11T07:36:01.706Z,298.12
2019-04-11T07:37:00.756Z,298.12
2019-04-11T07:38:01.098Z,303.75
2019-04-11T07:39:01.047Z,303.75
2019-04-11T07:40:00.859Z,303.75
2019-04-11T07:41:00.781Z,303.75
2019-04-11T07:42:01.095Z,303.75
2019-04-11T07:43:05.842Z,303.75
2019-04-11T07:44:01.677Z,303.75
2019-04-11T07:45:00.805Z,303.75
2019-04-11T07:46:00.656Z,309.38
2019-04-11T07:47:12.886Z,309.38
2019-04-11T07:48:02.742Z,309.38
2019-04-11T07:49:01.609Z,309.38
2019-04-11T07:50:00.610Z,309.38
2019-04-11T07:51:01.904Z,309.38
2019-04-11T07:52:00.594Z,315.00
2019-04-11T07:53:01.980Z,315.00
2019-04-11T07:54:00.629Z,315.00
2019-04-11T07:55:00.585Z,315.00
2019-04-11T07:56:02.493Z,315.00
2019-04-11T07:57:01.616Z,315.00
2019-04-11T07:58:00.529Z,315.00
2019-04-11T07:59:00.842Z,315.00
2019-04-11T08:00:00.562Z,320.62
2019-04-11T08:01:01.465Z,320.62
2019-04-11T08:02:01.551Z,320.62
2019-04-11T08:03:00.471Z,320.62
2019-04-11T08:04:01.567Z,320.62
2019-04-11T08:05:00.453Z,320.62
2019-04-11T08:06:00.924Z,326.25
2019-04-11T08:07:00.434Z,320.62
2019-04-11T08:08:00.649Z,326.25
2019-04-11T08:09:00.455Z,326.25
2019-04-11T08:10:00.394Z,326.25
2019-04-11T08:11:00.382Z,326.25
2019-04-11T08:12:00.830Z,326.25
2019-04-11T08:13:00.365Z,326.25
2019-04-11T08:14:00.351Z,326.25
2019-04-11T08:15:01.480Z,331.88
2019-04-11T08:16:00.328Z,331.88
2019-04-11T08:17:01.556Z,331.88
2019-04-11T08:18:00.367Z,331.88
2019-04-11T08:19:01.390Z,331.88
2019-04-11T08:20:00.289Z,331.88
2019-04-11T08:21:00.273Z,331.88
2019-04-11T08:22:00.882Z,331.88
2019-04-11T08:23:00.254Z,337.50
2019-04-11T08:24:00.354Z,337.50
2019-04-11T08:25:00.857Z,337.50
2019-04-11T08:26:00.223Z,337.50
2019-04-11T08:27:00.926Z,337.50
2019-04-11T08:28:03.039Z,337.50
2019-04-11T08:29:08.434Z,337.50
2019-04-11T08:30:02.532Z,337.50
2019-04-11T08:31:01.287Z,343.12
2019-04-11T08:32:00.455Z,343.12
2019-04-11T08:33:00.393Z,343.12
2019-04-11T08:34:00.134Z,343.12
2019-04-11T08:35:00.137Z,343.12
2019-04-11T08:36:00.142Z,343.12
2019-04-11T08:37:00.100Z,343.12
2019-04-11T08:38:01.088Z,343.12
2019-04-11T08:39:00.645Z,343.12
2019-04-11T08:40:00.072Z,343.12
2019-04-11T08:41:01.023Z,348.75
2019-04-11T08:42:01.048Z,348.75
2019-04-11T08:43:00.037Z,348.75
2019-04-11T08:44:00.027Z,348.75
2019-04-11T08:45:00.490Z,348.75
2019-04-11T08:46:00.002Z,343.12
2019-04-11T08:47:01.019Z,348.75
2019-04-11T08:48:00.290Z,348.75
2019-04-11T08:48:59.998Z,354.38
2019-04-11T08:49:59.958Z,354.38
2019-04-11T08:51:00.948Z,360.00
2019-04-11T08:52:00.051Z,360.00
2019-04-11T08:53:00.382Z,365.62
2019-04-11T08:53:59.948Z,365.62
2019-04-11T08:54:59.910Z,360.00
2019-04-11T08:56:01.906Z,348.75
2019-04-11T08:57:01.211Z,365.62
2019-04-11T08:58:00.324Z,371.25
2019-04-11T08:59:00.639Z,382.50
2019-04-11T09:00:00.003Z,393.75
2019-04-11T09:01:00.682Z,410.62
2019-04-11T09:02:00.412Z,410.62
2019-04-11T09:02:59.821Z,405.00
2019-04-11T09:04:06.766Z,343.12
2019-04-11T09:05:08.484Z,365.62
2019-04-11T09:06:02.698Z,354.38
2019-04-11T09:07:01.019Z,393.75
2019-04-11T09:08:00.175Z,405.00
2019-04-11T09:08:59.777Z,433.12
2019-04-11T09:09:59.863Z,444.38
2019-04-11T09:11:00.198Z,444.38
2019-04-11T09:12:00.409Z,450.00
2019-04-11T09:13:00.615Z,466.88
2019-04-11T09:13:59.850Z,483.75
2019-04-11T09:15:00.266Z,483.75
2019-04-11T09:15:59.673Z,472.50
2019-04-11T09:16:59.711Z,455.62
2019-04-11T09:18:04.716Z,427.50
2019-04-11T09:19:02.193Z,393.75
2019-04-11T09:19:59.632Z,410.62
2019-04-11T09:21:00.121Z,382.50
2019-04-11T09:22:00.447Z,427.50
2019-04-11T09:22:59.654Z,444.38
2019-04-11T09:23:59.835Z,461.25
2019-04-11T09:24:59.575Z,466.88
2019-04-11T09:25:59.599Z,466.88
2019-04-11T09:27:00.367Z,444.38
2019-04-11T09:28:00.691Z,427.50
2019-04-11T09:28:59.866Z,421.88
2019-04-11T09:29:59.528Z,416.25
2019-04-11T09:30:59.507Z,410.62
2019-04-11T09:32:00.119Z,410.62
2019-04-11T09:33:00.320Z,399.38
2019-04-11T09:33:59.590Z,399.38
2019-04-11T09:34:59.816Z,399.38
2019-04-11T09:35:59.709Z,399.38
2019-04-11T09:36:59.441Z,399.38
2019-04-11T09:38:00.157Z,405.00
2019-04-11T09:38:59.425Z,399.38
2019-04-11T09:39:59.456Z,393.75
2019-04-11T09:41:00.470Z,393.75
2019-04-11T09:41:59.391Z,393.75
2019-04-11T09:42:59.680Z,388.12
2019-04-11T09:44:00.161Z,388.12
2019-04-11T09:44:59.459Z,388.12
2019-04-11T09:45:59.811Z,388.12
2019-04-11T09:46:59.391Z,388.12
2019-04-11T09:48:09.403Z,388.12
2019-04-11T09:49:00.310Z,388.12
2019-04-11T09:50:00.065Z,388.12
2019-04-11T09:50:59.290Z,393.75
2019-04-11T09:52:00.336Z,393.75
2019-04-11T09:52:59.296Z,393.75
2019-04-11T09:53:59.289Z,393.75
2019-04-11T09:54:59.253Z,399.38
2019-04-11T09:55:59.240Z,399.38
2019-04-11T09:57:00.227Z,405.00
2019-04-11T09:58:00.144Z,388.12
2019-04-11T09:59:00.237Z,405.00
2019-04-11T09:59:59.217Z,399.38
2019-04-11T10:00:59.418Z,405.00
2019-04-11T10:02:00.304Z,421.88
2019-04-11T10:02:59.160Z,421.88
2019-04-11T10:03:59.454Z,421.88
2019-04-11T10:05:01.223Z,410.62
2019-04-11T10:05:59.146Z,410.62
2019-04-11T10:06:59.212Z,399.38
2019-04-11T10:07:59.997Z,393.75
2019-04-11T10:08:59.757Z,393.75
2019-04-11T10:10:00.196Z,393.75
2019-04-11T10:10:59.659Z,393.75
2019-04-11T10:11:59.169Z,393.75
2019-04-11T10:12:59.051Z,393.75
2019-04-11T10:13:59.605Z,393.75
2019-04-11T10:14:59.038Z,393.75
2019-04-11T10:15:59.786Z,399.38
2019-04-11T10:17:00.168Z,399.38
2019-04-11T10:17:59.104Z,399.38
2019-04-11T10:18:59.813Z,405.00
2019-04-11T10:20:00.243Z,410.62
2019-04-11T10:20:59.229Z,410.62
2019-04-11T10:21:58.956Z,416.25
2019-04-11T10:22:58.979Z,410.62
2019-04-11T10:23:59.011Z,416.25
2019-04-11T10:24:58.968Z,416.25
2019-04-11T10:25:59.352Z,416.25
2019-04-11T10:26:58.906Z,416.25
2019-04-11T10:27:58.896Z,416.25
2019-04-11T10:29:00.168Z,421.88
2019-04-11T10:29:59.036Z,421.88
2019-04-11T10:30:58.931Z,421.88
2019-04-11T10:31:59.071Z,421.88
2019-04-11T10:32:59.408Z,421.88
2019-04-11T10:33:59.561Z,427.50
2019-04-11T10:34:59.695Z,427.50
2019-04-11T10:35:58.947Z,427.50
2019-04-11T10:36:59.166Z,433.12
2019-04-11T10:37:58.781Z,433.12
2019-04-11T10:38:58.770Z,433.12
2019-04-11T10:40:00.023Z,438.75
2019-04-11T10:40:58.800Z,444.38
2019-04-11T10:41:58.897Z,450.00
2019-04-11T10:42:58.729Z,444.38
2019-04-11T10:43:59.439Z,444.38
2019-04-11T10:44:58.706Z,444.38
2019-04-11T10:45:58.853Z,450.00
2019-04-11T10:46:59.780Z,444.38
2019-04-11T10:47:58.701Z,450.00
2019-04-11T10:48:58.665Z,450.00
2019-04-11T10:49:58.811Z,455.62
2019-04-11T10:50:58.644Z,461.25
2019-04-11T10:51:58.630Z,466.88
2019-04-11T10:52:58.662Z,466.88
2019-04-11T10:53:59.660Z,478.12
2019-04-11T10:54:58.596Z,472.50
2019-04-11T10:55:58.620Z,472.50
2019-04-11T10:56:58.574Z,472.50
2019-04-11T10:57:58.563Z,472.50
2019-04-11T10:58:59.548Z,478.12
2019-04-11T10:59:58.702Z,466.88
2019-04-11T11:00:59.597Z,466.88
2019-04-11T11:01:58.520Z,461.25
2019-04-11T11:02:58.511Z,466.88
2019-04-11T11:03:59.032Z,466.88
2019-04-11T11:04:59.040Z,466.88
2019-04-11T11:05:59.584Z,472.50
2019-04-11T11:06:58.468Z,478.12
2019-04-11T11:07:59.289Z,478.12
2019-04-11T11:08:58.569Z,489.38
2019-04-11T11:09:58.766Z,495.00
2019-04-11T11:10:59.676Z,500.62
2019-04-11T11:11:58.852Z,500.62
2019-04-11T11:12:59.391Z,506.25
2019-04-11T11:13:58.467Z,506.25
2019-04-11T11:14:58.779Z,506.25
2019-04-11T11:15:58.364Z,511.88
2019-04-11T11:16:58.888Z,511.88
2019-04-11T11:18:31.978Z,579.38
2019-04-11T11:19:24.531Z,725.62
2019-04-11T11:20:10.703Z,781.88
2019-04-11T11:21:02.634Z,832.50
2019-04-11T11:22:00.423Z,849.38
2019-04-11T11:22:58.329Z,894.38
2019-04-11T11:23:58.586Z,911.25
2019-04-11T11:24:58.276Z,568.12
2019-04-11T11:25:58.542Z,455.62
2019-04-11T11:27:00.587Z,562.50
2019-04-11T11:27:58.233Z,1006.88
2019-04-11T11:29:02.793Z,990.00
2019-04-11T11:30:01.632Z,973.12
2019-04-11T11:30:58.455Z,990.00
2019-04-11T11:31:58.191Z,1029.38
2019-04-11T11:32:58.227Z,1046.25
2019-04-11T11:33:58.860Z,1080.00
2019-04-11T11:34:59.046Z,1085.62
2019-04-11T11:36:01.090Z,1125.00
2019-04-11T11:36:58.606Z,1113.75
2019-04-11T11:37:58.118Z,1113.75
2019-04-11T11:38:58.404Z,1153.12
2019-04-11T11:40:02.719Z,1158.75
2019-04-11T11:41:00.356Z,1181.25
2019-04-11T11:41:58.095Z,1203.75
2019-04-11T11:42:58.777Z,1215.00
2019-04-11T11:43:59.201Z,1226.25
2019-04-11T11:44:59.254Z,1260.00
2019-04-11T11:45:58.913Z,1271.25
2019-04-11T11:47:00.792Z,1220.62
2019-04-11T11:47:58.859Z,1181.25
2019-04-11T11:49:00.453Z,1203.75
2019-04-11T11:50:01.579Z,1231.88
2019-04-11T11:50:59.153Z,1271.25
2019-04-11T11:52:00.034Z,1293.75
2019-04-11T11:52:58.002Z,1305.00
2019-04-11T11:53:57.963Z,1327.50
2019-04-11T11:54:57.932Z,1350.00
2019-04-11T11:55:57.989Z,1383.75
2019-04-11T11:56:58.204Z,1372.50
2019-04-11T11:57:57.898Z,1389.38
2019-04-11T11:58:59.536Z,1383.75
2019-04-11T11:59:58.728Z,1321.88
2019-04-11T12:01:01.226Z,1305.00
2019-04-11T12:02:00.036Z,1260.00
2019-04-11T12:02:58.959Z,1395.00
2019-04-11T12:04:01.294Z,1473.75
2019-04-11T12:04:57.853Z,1496.25
2019-04-11T12:05:59.060Z,1411.88
2019-04-11T12:07:02.087Z,1456.88
2019-04-11T12:08:00.241Z,1524.38
2019-04-11T12:08:58.238Z,1541.25
2019-04-11T12:09:58.557Z,1535.62
2019-04-11T12:10:57.789Z,1535.62
2019-04-11T12:11:58.786Z,1524.38
2019-04-11T12:12:57.733Z,1473.75
2019-04-11T12:13:57.918Z,1535.62
2019-04-11T12:14:57.714Z,1563.75
2019-04-11T12:15:57.704Z,1569.38
2019-04-11T12:17:01.913Z,1580.62
2019-04-11T12:17:59.622Z,1513.12
2019-04-11T12:18:58.374Z,1535.62
2019-04-11T12:20:05.384Z,1642.50
2019-04-11T12:20:59.270Z,1642.50
2019-04-11T12:21:57.863Z,1687.50
2019-04-11T12:22:57.674Z,1586.25
2019-04-11T12:24:03.821Z,1625.62
2019-04-11T12:24:58.739Z,1676.25
2019-04-11T12:25:57.760Z,1715.62
2019-04-11T12:26:57.583Z,1715.62
2019-04-11T12:27:58.298Z,1715.62
2019-04-11T12:28:57.638Z,1777.50
2019-04-11T12:29:57.678Z,1715.62
2019-04-11T12:31:01.338Z,1721.25
2019-04-11T12:31:59.811Z,1755.00
2019-04-11T12:32:57.517Z,1726.88
2019-04-11T12:33:57.657Z,1766.25
2019-04-11T12:34:57.744Z,1783.12
2019-04-11T12:35:59.013Z,1805.62
2019-04-11T12:36:57.513Z,1749.38
2019-04-11T12:37:57.921Z,1783.12
2019-04-11T12:38:57.450Z,1816.88
2019-04-11T12:39:57.439Z,1822.50
2019-04-11T12:40:57.462Z,1839.38
2019-04-11T12:41:57.421Z,1822.50
2019-04-11T12:42:57.407Z,1828.12
2019-04-11T12:43:57.418Z,1850.62
2019-04-11T12:44:59.313Z,1839.38
2019-04-11T12:45:57.373Z,1771.88
2019-04-11T12:46:57.408Z,1856.25
2019-04-11T12:47:57.355Z,1946.25